createdAt,value
2023-11-20T00:01:04.590Z,100262.03
2023-11-20T00:06:06.283Z,100267.72
2023-11-20T00:11:07.818Z,100246.88
2023-11-20T00:16:11.397Z,100261.53
2023-11-20T00:21:13.846Z,100249.13
2023-11-20T00:26:15.613Z,100244.59
2023-11-20T00:31:17.224Z,100245.91
2023-11-20T00:36:19.880Z,100243.03
2023-11-20T00:41:21.578Z,100258.78
2023-11-20T00:46:23.417Z,100250.78
2023-11-20T00:51:26.553Z,100256.72
2023-11-20T00:56:29.757Z,100259.47
2023-11-20T01:01:37.673Z,100262.22
2023-11-20T01:06:41.099Z,100266.75
2023-11-20T01:11:45.495Z,100266.06
2023-11-20T01:16:47.085Z,100267.00
2023-11-20T01:21:48.697Z,100267.25
2023-11-20T01:26:50.396Z,100260.00
2023-11-20T01:31:51.938Z,100269.75
2023-11-20T01:36:53.589Z,100289.31
2023-11-20T01:41:55.129Z,100289.44
2023-11-20T01:46:57.473Z,100279.78
2023-11-20T01:51:59.697Z,100282.78
2023-11-20T01:57:02.811Z,100277.69
2023-11-20T02:02:04.618Z,100271.72
2023-11-20T02:07:09.172Z,100270.75
2023-11-20T02:12:11.059Z,100276.25
2023-11-20T02:17:12.583Z,100275.88
2023-11-20T02:22:14.247Z,100257.16
2023-11-20T02:27:46.686Z,100265.00
2023-11-20T02:32:48.342Z,100255.59
2023-11-20T02:37:49.903Z,100264.31
2023-11-20T02:42:51.615Z,100254.28
2023-11-20T02:47:53.776Z,100250.00
2023-11-20T02:52:55.981Z,100253.31
2023-11-20T02:57:57.733Z,100249.63
2023-11-20T03:02:59.331Z,100246.06
2023-11-20T03:08:01.055Z,100238.31
2023-11-20T03:13:02.743Z,100235.44
2023-11-20T03:18:05.122Z,100244.25
2023-11-20T03:23:06.819Z,100238.06
2023-11-20T03:28:08.395Z,100237.13
2023-11-20T03:33:10.088Z,100238.06
2023-11-20T03:38:11.690Z,100241.53
2023-11-20T03:43:13.391Z,100245.69
2023-11-20T03:48:15.010Z,100242.00
2023-11-20T03:53:16.525Z,100248.19
2023-11-20T03:58:18.100Z,100241.53
2023-11-20T04:03:20.298Z,100246.66
2023-11-20T04:08:22.523Z,100258.81
2023-11-20T04:13:24.151Z,100269.19
2023-11-20T04:18:25.771Z,100254.63
2023-11-20T04:23:27.651Z,100254.16
2023-11-20T04:28:32.134Z,100250.72
2023-11-20T04:33:33.869Z,100256.06
2023-11-20T04:38:36.807Z,100261.06
2023-11-20T04:43:39.545Z,100251.53
2023-11-20T04:48:41.347Z,100241.75
2023-11-20T04:53:44.077Z,100248.31
2023-11-20T04:58:46.347Z,100239.50
2023-11-20T05:03:49.824Z,100240.94
2023-11-20T05:08:51.666Z,100236.53
2023-11-20T05:13:53.208Z,100239.50
2023-11-20T05:18:55.021Z,100242.88
2023-11-20T05:23:56.574Z,100247.66
2023-11-20T05:28:58.372Z,100249.69
2023-11-20T05:34:00.001Z,100243.47
2023-11-20T05:39:01.758Z,100245.75
2023-11-20T05:44:03.324Z,100240.03
2023-11-20T05:49:05.042Z,100245.38
2023-11-20T05:54:10.077Z,100253.25
2023-11-20T05:59:11.614Z,100249.78
2023-11-20T06:04:15.691Z,100257.41
2023-11-20T06:09:17.445Z,100268.63
2023-11-20T06:14:19.239Z,100266.84
2023-11-20T06:19:21.137Z,100261.47
2023-11-20T06:24:22.713Z,100271.13
2023-11-20T06:29:24.266Z,100275.19
2023-11-20T06:34:25.797Z,100277.78
2023-11-20T06:39:27.966Z,100278.63
2023-11-20T06:44:29.582Z,100273.38
2023-11-20T06:49:31.232Z,100288.72
2023-11-20T06:54:32.816Z,100293.97
2023-11-20T06:59:34.526Z,100292.19
2023-11-20T07:04:39.323Z,100291.63
2023-11-20T07:09:40.939Z,100295.31
2023-11-20T07:14:42.520Z,100294.59
2023-11-20T07:19:44.019Z,100304.97
2023-11-20T07:24:45.649Z,100316.41
2023-11-20T07:29:47.573Z,100326.28
2023-11-20T07:34:49.205Z,100321.78
2023-11-20T07:39:50.782Z,100337.38
2023-11-20T07:44:52.441Z,100330.22
2023-11-20T07:49:53.952Z,100340.72
2023-11-20T07:54:55.485Z,100340.13
2023-11-20T07:59:57.048Z,100336.53
2023-11-20T08:05:00.083Z,100335.72
2023-11-20T08:10:05.632Z,100335.59
2023-11-20T08:15:11.655Z,100330.56
2023-11-20T08:20:13.181Z,100339.38
2023-11-20T08:25:15.112Z,100337.59
2023-11-20T08:30:16.774Z,100347.00
2023-11-20T08:35:18.292Z,100338.41
2023-11-20T08:40:20.003Z,100333.88
2023-11-20T08:45:21.649Z,100339.19
2023-11-20T08:50:26.743Z,100331.44
2023-11-20T08:55:28.479Z,100332.44
2023-11-20T09:00:30.122Z,100334.47
2023-11-20T09:05:31.777Z,100329.81
2023-11-20T09:10:33.455Z,100330.31
2023-11-20T09:15:35.007Z,100333.50
2023-11-20T09:20:37.458Z,100319.44
2023-11-20T09:25:40.318Z,100325.41
2023-11-20T09:30:42.061Z,100329.22
2023-11-20T09:35:43.627Z,100324.47
2023-11-20T09:40:46.320Z,100318.50
2023-11-20T09:45:53.736Z,100326.88
2023-11-20T09:51:07.424Z,100325.44
2023-11-20T09:56:14.906Z,100325.91
2023-11-20T10:01:18.654Z,100331.28
2023-11-20T10:06:22.970Z,100315.06
2023-11-20T10:11:24.752Z,100323.16
2023-11-20T10:16:28.408Z,100319.31
2023-11-20T10:21:30.875Z,100319.53
2023-11-20T10:26:34.812Z,100311.44
2023-11-20T10:31:46.837Z,100301.38
2023-11-20T10:37:21.873Z,100292.16
2023-11-20T10:42:23.680Z,100284.00
2023-11-20T10:47:26.224Z,100282.75
2023-11-20T10:52:31.989Z,100270.69
2023-11-20T10:57:34.464Z,100262.13
2023-11-20T11:02:39.299Z,100250.91
2023-11-20T11:07:42.531Z,100246.47
2023-11-20T11:12:45.907Z,100239.88
2023-11-20T11:17:59.530Z,100246.09
2023-11-20T11:23:08.522Z,100237.19
2023-11-20T11:28:15.592Z,100226.72
2023-11-20T11:33:36.107Z,100234.44
2023-11-20T11:38:42.344Z,100230.97
2023-11-20T11:44:28.199Z,100223.94
2023-11-20T11:49:31.091Z,100204.31
2023-11-20T11:54:33.566Z,100223.34
2023-11-20T11:59:39.790Z,100224.25
2023-11-20T12:04:50.887Z,100215.81
2023-11-20T12:09:56.744Z,100222.72
2023-11-20T12:14:58.586Z,100215.56
2023-11-20T12:20:01.557Z,100209.03
2023-11-20T12:25:03.671Z,100212.56
2023-11-20T12:30:06.420Z,100205.97
2023-11-20T12:35:11.214Z,100200.16
2023-11-20T12:40:13.206Z,100189.19
2023-11-20T12:45:14.891Z,100179.19
2023-11-20T12:50:18.675Z,100169.66
2023-11-20T12:55:21.675Z,100165.06
2023-11-20T13:00:24.755Z,100169.22
2023-11-20T13:05:28.884Z,100158.84
2023-11-20T13:10:34.950Z,100142.94
2023-11-20T13:15:36.848Z,100152.69
2023-11-20T13:20:43.510Z,100148.44
2023-11-20T13:25:47.339Z,100146.91
2023-11-20T13:30:55.487Z,100144.78
2023-11-20T13:35:58.678Z,100142.25
2023-11-20T13:41:01.064Z,100143.72
2023-11-20T13:46:03.331Z,100125.25
2023-11-20T13:51:06.602Z,100141.91
2023-11-20T13:56:08.826Z,100138.75
2023-11-20T14:01:11.409Z,100130.16
2023-11-20T14:06:13.269Z,100136.47
2023-11-20T14:11:14.779Z,100124.56
2023-11-20T14:16:16.803Z,100135.13
2023-11-20T14:21:18.537Z,100139.91
2023-11-20T14:26:29.595Z,100137.66
2023-11-20T14:31:36.563Z,100131.47
2023-11-20T14:36:38.950Z,100135.50
2023-11-20T14:41:40.572Z,100133.00
2023-11-20T14:46:42.321Z,100145.91
2023-11-20T14:51:44.125Z,100148.88
2023-11-20T14:56:45.876Z,100145.13
2023-11-20T15:01:47.509Z,100148.41
2023-11-20T15:06:49.099Z,100138.50
2023-11-20T15:11:50.616Z,100146.38
2023-11-20T15:16:52.469Z,100140.00
2023-11-20T15:21:55.157Z,100144.28
2023-11-20T15:26:56.772Z,100135.00
2023-11-20T15:31:58.326Z,100133.84
2023-11-20T15:36:59.960Z,100143.63
2023-11-20T15:42:01.900Z,100148.03
2023-11-20T15:47:04.378Z,100143.38
2023-11-20T15:52:06.132Z,100127.69
2023-11-20T15:57:08.017Z,100132.91
2023-11-20T16:02:10.783Z,100135.06
2023-11-20T16:07:13.326Z,100136.63
2023-11-20T16:12:16.358Z,100142.22
2023-11-20T16:17:18.097Z,100130.19
2023-11-20T16:22:20.741Z,100141.38
2023-11-20T16:27:22.486Z,100142.94
2023-11-20T16:32:24.198Z,100147.81
2023-11-20T16:37:26.927Z,100132.97
2023-11-20T16:42:29.879Z,100136.88
2023-11-20T16:47:31.555Z,100142.72
2023-11-20T16:52:33.130Z,100134.84
2023-11-20T16:57:34.898Z,100137.94
2023-11-20T17:02:36.580Z,100146.50
2023-11-20T17:07:38.646Z,100144.59
2023-11-20T17:12:40.203Z,100142.47
2023-11-20T17:17:41.815Z,100137.13
2023-11-20T17:22:44.533Z,100136.28
2023-11-20T17:27:47.172Z,100147.13
2023-11-20T17:32:49.907Z,100152.13
2023-11-20T17:37:51.580Z,100149.03
2023-11-20T17:42:53.161Z,100143.31
2023-11-20T17:47:54.799Z,100149.72
2023-11-20T17:52:56.518Z,100150.69
2023-11-20T17:57:58.164Z,100147.59
2023-11-20T18:02:59.814Z,100146.53
2023-11-20T18:08:01.418Z,100141.19
2023-11-20T18:13:03.993Z,100135.22
2023-11-20T18:18:06.209Z,100135.09
2023-11-20T18:23:07.846Z,100125.09
2023-11-20T18:28:09.516Z,100128.78
2023-11-20T18:33:12.193Z,100121.63
2023-11-20T18:38:13.814Z,100129.81
2023-11-20T18:43:15.437Z,100126.84
2023-11-20T18:48:17.837Z,100124.34
2023-11-20T18:53:19.987Z,100121.47
2023-11-20T18:58:21.954Z,100119.09
2023-11-20T19:03:23.654Z,100124.81
2023-11-20T19:08:26.555Z,100132.31
2023-11-20T19:13:28.175Z,100131.81
2023-11-20T19:18:31.288Z,100146.78
2023-11-20T19:23:32.831Z,100153.47
2023-11-20T19:28:34.357Z,100146.56
2023-11-20T19:33:36.106Z,100145.34
2023-11-20T19:38:39.091Z,100144.63
2023-11-20T19:43:40.758Z,100148.94
2023-11-20T19:48:43.604Z,100145.13
2023-11-20T19:53:47.765Z,100147.03
2023-11-20T19:58:49.688Z,100143.22
2023-11-20T20:03:52.669Z,100145.00
2023-11-20T20:08:54.452Z,100148.13
2023-11-20T20:13:56.069Z,100150.72
2023-11-20T20:18:59.249Z,100153.94
2023-11-20T20:24:01.121Z,100151.81
2023-11-20T20:29:02.777Z,100149.16
2023-11-20T20:34:06.904Z,100146.19
2023-11-20T20:39:09.786Z,100150.69
2023-11-20T20:44:11.396Z,100151.25
2023-11-20T20:49:13.140Z,100155.06
2023-11-20T20:54:14.778Z,100153.84
2023-11-20T20:59:17.387Z,100158.13
2023-11-20T21:04:18.943Z,100161.94
2023-11-20T21:09:22.004Z,100167.44
2023-11-20T21:14:27.096Z,100172.22
2023-11-20T21:19:29.841Z,100176.06
2023-11-20T21:24:31.617Z,100172.50
2023-11-20T21:29:33.260Z,100174.75
2023-11-20T21:34:35.587Z,100184.97
2023-11-20T21:39:37.642Z,100179.53
2023-11-20T21:44:40.379Z,100186.41
2023-11-20T21:49:42.449Z,100193.31
2023-11-20T21:54:44.000Z,100199.06
2023-11-20T21:59:45.697Z,100193.69
2023-11-20T22:04:47.771Z,100199.16
2023-11-20T22:09:49.370Z,100193.81
2023-11-20T22:14:50.907Z,100206.78
2023-11-20T22:19:52.761Z,100212.75
2023-11-20T22:24:54.330Z,100214.41
2023-11-20T22:29:56.119Z,100225.00
2023-11-20T22:35:10.450Z,100230.22
2023-11-20T22:40:17.346Z,100238.19
2023-11-20T22:45:19.371Z,100250.31
2023-11-20T22:50:20.997Z,100262.56
2023-11-20T22:55:25.369Z,100254.94
2023-11-20T23:00:29.537Z,100260.19
2023-11-20T23:05:31.089Z,100262.91
2023-11-20T23:10:32.705Z,100262.06
2023-11-20T23:15:36.576Z,100259.47
2023-11-20T23:20:38.441Z,100272.78
2023-11-20T23:25:40.126Z,100273.00
2023-11-20T23:30:42.376Z,100274.06
2023-11-20T23:35:43.944Z,100288.19
2023-11-20T23:40:48.442Z,100299.75
2023-11-20T23:45:54.832Z,100299.03
2023-11-20T23:50:56.731Z,100297.34
2023-11-20T23:55:59.167Z,100302.81
